METAR Rapporter från flygplatser

 

ESTA - Ängelholm, Sweden
Distance from station: SSV 17km
Uppdaterad: 2019-11-12 19:50
Klart
Klart
 Vind från S
Vind: S 19 km/h
Temperatur: 4°C
Wind Chill: 0°C
Daggpunkt: 2°C
Luftfuktighet: 87%
Barometer: 1003 hPa
Summering: Klart
Visibility: greater than 10 km
2019/11/12 18:50 ESTA 121850Z 17010KT CAVOK 04/02 Q1003
ESMT - Halmstad, Sweden
Distance from station: N 26km
Uppdaterad: 2019-11-12 19:50
Enstaka moln
Enstaka moln
 Vind från SSO
Vind: SSO 13 km/h
Temperatur: 5°C
Wind Chill: 2°C
Daggpunkt: 3°C
Luftfuktighet: 87%
Barometer: 1003 hPa
Clouds: Enstaka moln
Visibility: 10 km
Cloud details: Enstaka moln 1737 m
2019/11/12 18:50 ESMT 121850Z 15007KT 120V180 9999 FEW057 05/03 Q1003
 
ESTL - Ljungbyhed, Sweden
Distance from station: SSO 45km
Uppdaterad: 2019-11-12 19:50
Övervägande molnigt
Övervägande molnigt
 Vind från OSO
Vind: OSO 9 km/h
Temperatur: 5°C
Wind Chill: 3°C
Daggpunkt: 4°C
Luftfuktighet: 93%
Barometer: 1003 hPa
Clouds: Övervägande molnigt
Visibility: 10 km
Cloud details: Enstaka moln 853 m
Övervägande molnigt 945 m
2019/11/12 18:50 ESTL 121850Z AUTO 12005KT 9999 FEW028/// BKN031/// 05/04 Q1003
EKCH - Copenhagen/Kastrup, Denmark
Distance from station: S 92km
Uppdaterad: 2019-11-12 19:50
Övervägande molnigt
Övervägande molnigt
 Vind från S
Vind: S 24 km/h
Temperatur: 7°C
Wind Chill: 3°C
Daggpunkt: 4°C
Luftfuktighet: 81%
Barometer: 1003 hPa
Clouds: Övervägande molnigt
Visibility: 10 km
Cloud details: Övervägande molnigt 732 m
2019/11/12 18:50 EKCH 121850Z AUTO 19013KT 9999 BKN024/// 07/04 Q1003 NOSIG
 
ESMK - Kristianstad/Everöd, Sweden
Distance from station: SO 93km
Uppdaterad: 2019-11-12 19:50
Övervägande molnigt
Övervägande molnigt
 Vind från SSO
Vind: SSO 6 km/h
Temperatur: 5°C
Daggpunkt: 3°C
Luftfuktighet: 87%
Barometer: 1004 hPa
Clouds: Övervägande molnigt
Visibility: 10 km
Cloud details: Enstaka moln 640 m
Delvis molnigt 884 m
Övervägande molnigt 1615 m
2019/11/12 18:50 ESMK 121850Z 15003KT 130V210 9999 FEW021 SCT029 BKN053 05/03 Q1004 REDZ
ESMS - Malmö/Sturup, Sweden
Distance from station: SSO 104km
Uppdaterad: 2019-11-12 19:50
Delvis molnigt
Delvis molnigt
 Vind från SSO
Vind: SSO 13 km/h
Temperatur: 4°C
Wind Chill: 1°C
Daggpunkt: 2°C
Luftfuktighet: 87%
Barometer: 1003 hPa
Clouds: Delvis molnigt
Visibility: 10 km
Cloud details: Delvis molnigt 640 m
2019/11/12 18:50 ESMS 121850Z 15007KT 9999 SCT021 04/02 Q1003
 
EKRK - Copenhagen/Roskilde, Denmark
Distance from station: SSV 108km
Uppdaterad: 2019-11-12 19:50
Delvis molnigt
Delvis molnigt
 Vind från SSO
Vind: SSO 9 km/h
Temperatur: 4°C
Wind Chill: 2°C
Daggpunkt: 2°C
Luftfuktighet: 87%
Barometer: 1002 hPa
Clouds: Delvis molnigt
Visibility: 10 km
Cloud details: Enstaka moln 1615 m
Delvis molnigt 2012 m
2019/11/12 18:50 EKRK 121850Z AUTO 16005KT 9999 FEW053/// SCT066/// 04/02 Q1002
ESMX - Växjö/Kronoberg, Sweden
Distance from station: ONO 124km
Uppdaterad: 2019-11-12 19:50
Övervägande molnigt
Övervägande molnigt
 Vind från SSO
Vind: SSO 15 km/h
Temperatur: 4°C
Wind Chill: 1°C
Daggpunkt: 3°C
Luftfuktighet: 93%
Barometer: 1004 hPa
Clouds: Övervägande molnigt
Visibility: 10 km
Cloud details: Övervägande molnigt 1250 m
2019/11/12 18:50 ESMX 121850Z 15008KT 9999 BKN041 04/03 Q1004
 
EKAH - Tirstrup, Denmark
Distance from station: V 141km
Uppdaterad: 2019-11-12 19:50
Delvis molnigt
Delvis molnigt
 Vind från S
Vind: S 11 km/h
Temperatur: 6°C
Wind Chill: 4°C
Daggpunkt: 2°C
Luftfuktighet: 76%
Barometer: 1000 hPa
Clouds: Delvis molnigt
Visibility: 10 km
Cloud details: Enstaka moln 792 m
Delvis molnigt 1524 m
2019/11/12 18:50 EKAH 121850Z AUTO 17006KT 130V230 9999NDV FEW026/// SCT050/// 06/02 Q1000
ESGG - Göteborg/Landvetter, Sweden
Distance from station: NNV 142km
Uppdaterad: 2019-11-12 19:50
Övervägande molnigt
Övervägande molnigt
 Vind från S
Vind: S 17 km/h
Temperatur: 4°C
Wind Chill: 0°C
Daggpunkt: 3°C
Luftfuktighet: 93%
Barometer: 1001 hPa
Clouds: Övervägande molnigt
Visibility: 10 km
Cloud details: Enstaka moln 579 m
Delvis molnigt 792 m
Övervägande molnigt 1250 m
2019/11/12 18:50 ESGG 121850Z 17009KT 9999 FEW019 SCT026 BKN041 04/03 Q1001 R21/29//95
 
ESDF - Ronneby, Sweden
Distance from station: O 147km
Uppdaterad: 2019-11-12 19:50
Delvis molnigt
Delvis molnigt
 Vind från S
Vind: S 11 km/h
Temperatur: 6°C
Wind Chill: 4°C
Daggpunkt: 4°C
Luftfuktighet: 87%
Barometer: 1005 hPa
Clouds: Delvis molnigt
Visibility: 10 km
Cloud details: Delvis molnigt 488 m
2019/11/12 18:50 ESDF 121850Z 18006KT 9999 SCT016 06/04 Q1005
ESGP - Göteborg/Säve, Sweden
Distance from station: NNV 161km
Uppdaterad: 2017-01-02 11:20
NOT Current
Klart
Klart
 Vind från calm
Vind: Vindstilla
Temperatur: -2°C
Daggpunkt: -4°C
Luftfuktighet: 86%
Barometer: 1012 hPa
Clouds: Klart
Visibility: 10 km
2017/01/02 10:20 ESGP 021020Z AUTO 00000KT 9999 NCD M02/M04 Q1012
 
ESGJ - Jönköping Airport, Sweden
Distance from station: NNO 164km
Uppdaterad: 2019-11-12 19:50
Övervägande molnigt
Övervägande molnigt
 Vind från S
Vind: S 19 km/h
Temperatur: 4°C
Wind Chill: 0°C
Daggpunkt: 3°C
Luftfuktighet: 93%
Barometer: 1002 hPa
Clouds: Övervägande molnigt
Visibility: 10 km
Cloud details: Delvis molnigt 305 m
Övervägande molnigt 427 m
Övervägande molnigt 579 m
2019/11/12 18:50 ESGJ 121850Z 19010KT 9999 SCT010 BKN014 BKN019 04/03 Q1002
EKAV - Avno, Denmark
Distance from station: SSV 168km
Uppdaterad: 2016-10-04 06:20
NOT Current
Klart
Klart
 
Barometer: 1039 hPa
Clouds: Klart
Visibility: 10 km
2016/10/04 04:20 EKAV 040420Z AUTO ///// 9999NDV NCD ///// Q1039
 
EKRN - Rönne, Denmark
Distance from station: SO 191km
Uppdaterad: 2019-11-12 19:50
Helmulet
Helmulet
 Vind från S
Vind: S 24 km/h
Temperatur: 7°C
Wind Chill: 3°C
Daggpunkt: 4°C
Luftfuktighet: 81%
Barometer: 1005 hPa
Clouds: Helmulet
Visibility: 10 km
Cloud details: Helmulet 610 m
2019/11/12 18:50 EKRN 121850Z AUTO 18013KT 9999 OVC020/// 07/04 Q1005
EKOD - Odense/Beldringe, Denmark
Distance from station: VSV 193km
Uppdaterad: 2019-11-12 16:50
NOT Current
Övervägande molnigt
Övervägande molnigt
 Vind från S
Vind: S 20 km/h
Temperatur: 7°C
Wind Chill: 4°C
Daggpunkt: 4°C
Luftfuktighet: 81%
Barometer: 1001 hPa
Clouds: Övervägande molnigt
Visibility: 10 km
Cloud details: Delvis molnigt 1128 m
Övervägande molnigt 1341 m
2019/11/12 15:50 EKOD 121550Z 18011KT 9999 SCT037 BKN044 07/04 Q1001
 
EKYT - AAlborg, Denmark
Distance from station: VNV 199km
Uppdaterad: 2019-11-12 19:50
Klart
Klart
 Vind från S
Vind: S 15 km/h
Temperatur: 4°C
Wind Chill: 1°C
Daggpunkt: 2°C
Luftfuktighet: 87%
Barometer: 999 hPa
Clouds: Klart
Visibility: 10 km
2019/11/12 18:50 EKYT 121850Z AUTO 17008KT 9999 NCD 04/02 Q0999
EKSN - Sindal Airport, Denmark
Distance from station: NV 201km
Uppdaterad: 2019-11-12 15:50
NOT Current
Övervägande molnigt
Övervägande molnigt
 Vind från S
Vind: S 24 km/h
Temperatur: 6°C
Wind Chill: 2°C
Daggpunkt: 4°C
Luftfuktighet: 87%
Barometer: 997 hPa
Clouds: Övervägande molnigt
Visibility: 10 km
Cloud details: Övervägande molnigt 549 m
2019/11/12 14:50 EKSN 121450Z 18013KT 9999 BKN018 06/04 Q0997
 
ESMQ - Kalmar, Sweden
Distance from station: O 211km
Uppdaterad: 2019-11-12 19:50
Klart
Klart
 Vind från SSV
Vind: SSV 11 km/h
Temperatur: 6°C
Wind Chill: 4°C
Daggpunkt: 3°C
Luftfuktighet: 81%
Barometer: 1006 hPa
Summering: Klart
Visibility: greater than 10 km
2019/11/12 18:50 ESMQ 121850Z 20006KT CAVOK 06/03 Q1006
ESGT - Trollhättan, Sweden
Distance from station: N 212km
Uppdaterad: 2019-11-12 19:50
Lätt regn, Helmulet
Lätt regn, Helmulet
 Vind från S
Vind: S 15 km/h
Temperatur: 4°C
Wind Chill: 1°C
Daggpunkt: 3°C
Luftfuktighet: 93%
Barometer: 1000 hPa
Summering: Lätt regn
Clouds: Helmulet
Visibility: 9 km
Cloud details: Övervägande molnigt 396 m
Helmulet 732 m
2019/11/12 18:50 ESGT 121850Z 17008KT 9000 -RA BKN013 OVC024 04/03 Q1000